シンガポール/チャンギ の空港の天気 - METARとTAF

シンガポール・チャンギ国際空港 ( WSSS / SIN ) - シンガポール Changi
飛行場実況気象(Metar)
観測時間12/12 18:00 SGT (12/12 10:00 UTC)
風向・風速不定 1m/s
視程10km以上
天気現象
少しの雲 雲底高度 490m
全天の8割程度の雲 雲底高度 4570m
気温28℃
湿度79%
気圧1009hPa
METARWSSS 121000Z VRB02KT 9999 FEW016TCU BKN150 28/24 Q1009 NOSIG
過去の天気等 Google飛行場航空写真 Wunderground天気予報

過去48時間のMETAR

飛行場予報(TAF)
発表時間: 12/12 16:00 SGT (12/12 08:00 UTC)
予報対象時間: 12日16時 SGT ~ 13日20時 SGT
風向・風速北北東 4m/s
視程10km以上
少しの積乱雲 雲底高度 460m
全天の4割程度の雲 雲底高度 610m
12日16時 SGT ~ 12日18時 SGT に一時的に
視程3000m
天気現象雷雨
少しの積乱雲 雲底高度 370m
全天の8割程度の雲 雲底高度 460m
13日11時 SGT ~ 13日16時 SGT に一時的に
視程4000m
天気現象しゅう雨
少しの積乱雲 雲底高度 370m
全天の8割程度の雲 雲底高度 460m
TAF AMD WSSS 120800Z 1208/1312 02008KT 9999 FEW015CB SCT020
TEMPO 1208/1210 3000 TSRA FEW012CB BKN015
TEMPO 1303/1308 4000 SHRA FEW012CB BKN015